Bear River, Wyoming
Current Conditions -  °F | °C
As of 5:53 AM on Thursday 30 Oct 2014 (Local Time) from KEVW Reporting Station
Clear Clear  
Wind Chill: 35°   Ceiling: Unl
Heat Index: 39°   Visibility: 10mi
Dew Point: 22°   Wind: 6mph
Humidity: 50%   Direction: 140°SE
Pressure: 30.37"   Gusts: NA
Location:  41.2776°N, 110.814°W
Report Text: KEVW 301153Z AUTO 14005KT 10SM CLR 04/M06 A3037 RMK AO2 SLP242 T00391056 10061 20033 53002 TSNO
Loading
Personal Weather Stations






























Interactive Weather Map
Tropical Storm Tracking
New forecast layout! Learn more

10-Day Weather Forecast

Advertisements
Track Severe Weather on mobile